Time;durP1;ratioP1;P1;durP2;ratioP2;P2;SDS_P1;SDS_P2;PMS_P1;PMS_P2;Temp;Humidity;BMP_temperature;BMP_pressure;BME280_temperature;BME280_humidity;BME280_pressure;Samples;Min_cycle;Max_cycle;Signal;HPM_P1;HPM_P2
2022/05/01 00:00:31;;;;;;;;;;;12.30;82.70;;;;;;5073230;28;19904;-74
2022/05/01 00:02:57;;;;;;;;;;;12.20;82.80;;;;;;5073412;28;19908;-74
2022/05/01 00:05:23;;;;;;;;;;;12.20;83.00;;;;;;5073015;28;19959;-74
2022/05/01 00:07:48;;;;;;;;;;;12.10;83.40;;;;;;5075243;28;19905;-74
2022/05/01 00:10:14;;;;;;;;;;;12.00;83.70;;;;;;5076557;28;19917;-74
2022/05/01 00:12:39;;;;;;;;;;;11.90;84.10;;;;;;5076618;28;20282;-74
2022/05/01 00:15:06;;;;;;;;;;;11.90;84.30;;;;;;5076670;28;20311;-74
2022/05/01 00:17:31;;;;;;;;;;;11.90;84.20;;;;;;5076690;28;19904;-74
2022/05/01 00:19:57;;;;;;;;;;;12.00;84.20;;;;;;5076724;28;19919;-74
2022/05/01 00:22:22;;;;;;;;;;;12.00;84.30;;;;;;5076299;28;19909;-74
2022/05/01 00:24:48;;;;;;;;;;;12.00;84.20;;;;;;5076746;28;19904;-74
2022/05/01 00:27:13;;;;;;;;;;;12.10;84.20;;;;;;5076744;28;19999;-74
2022/05/01 00:29:39;;;;;;;;;;;12.10;84.20;;;;;;5076717;28;19951;-74
2022/05/01 00:32:05;;;;;;;;;;;12.10;84.10;;;;;;5076621;28;20374;-74
2022/05/01 00:37:15;;;;;;;;;;;12.00;84.30;;;;;;5076243;28;19949;-74
2022/05/01 00:39:40;;;;;;;;;;;12.10;84.30;;;;;;5076457;28;19995;-74
2022/05/01 00:42:06;;;;;;;;;;;12.10;84.30;;;;;;5076332;28;20003;-74
2022/05/01 00:44:31;;;;;;;;;;;12.20;84.10;;;;;;5076238;28;20348;-74
2022/05/01 00:46:59;;;;;;;;;;;12.30;84.00;;;;;;5076135;28;20005;-74
2022/05/01 00:49:26;;;;;;;;;;;12.30;83.80;;;;;;5075955;28;19904;-74
2022/05/01 00:51:53;;;;;;;;;;;12.30;83.80;;;;;;5076296;28;20331;-74
2022/05/01 00:54:20;;;;;;;;;;;12.40;83.70;;;;;;5075886;28;19908;-74
2022/05/01 00:56:48;;;;;;;;;;;12.40;83.60;;;;;;5076050;28;19965;-74
2022/05/01 00:59:14;;;;;;;;;;;12.50;83.50;;;;;;5075875;28;19936;-74
2022/05/01 01:01:43;;;;;;;;;;;12.50;83.50;;;;;;5076139;28;19904;-74
2022/05/01 01:04:09;;;;;;;;;;;12.40;83.40;;;;;;5075664;28;19948;-74
2022/05/01 01:06:36;;;;;;;;;;;12.30;83.60;;;;;;5075865;28;20310;-74
2022/05/01 01:09:01;;;;;;;;;;;12.30;83.80;;;;;;5075796;28;19994;-74
2022/05/01 01:11:27;;;;;;;;;;;12.30;83.90;;;;;;5075560;28;20359;-74
2022/05/01 01:13:52;;;;;;;;;;;12.40;83.90;;;;;;5075647;28;19955;-74
2022/05/01 01:16:18;;;;;;;;;;;12.40;83.70;;;;;;5075626;28;19912;-74
2022/05/01 01:18:45;;;;;;;;;;;12.40;83.50;;;;;;5075132;28;19999;-74
2022/05/01 01:21:11;;;;;;;;;;;12.40;83.70;;;;;;5075622;28;19912;-74
2022/05/01 01:23:37;;;;;;;;;;;12.30;83.80;;;;;;5075457;28;19904;-74
2022/05/01 01:26:06;;;;;;;;;;;12.30;84.00;;;;;;5075150;28;20352;-74
2022/05/01 01:28:33;;;;;;;;;;;12.10;84.50;;;;;;5075175;28;19919;-74
2022/05/01 01:33:43;;;;;;;;;;;11.80;85.40;;;;;;5075102;28;19923;-74
2022/05/01 01:36:09;;;;;;;;;;;11.90;85.70;;;;;;5075406;28;19904;-74
2022/05/01 01:38:35;;;;;;;;;;;11.90;85.70;;;;;;5075294;28;19927;-74
2022/05/01 01:41:05;;;;;;;;;;;11.90;85.70;;;;;;5075167;28;20347;-74
2022/05/01 01:43:31;;;;;;;;;;;12.00;85.50;;;;;;5075056;28;19950;-74
2022/05/01 01:45:57;;;;;;;;;;;12.10;85.30;;;;;;5074584;28;19922;-74
2022/05/01 01:48:23;;;;;;;;;;;12.20;85.10;;;;;;5074923;28;19916;-74
2022/05/01 01:50:59;;;;;;;;;;;12.20;85.10;;;;;;5075096;28;19905;-74
2022/05/01 01:53:24;;;;;;;;;;;12.20;85.10;;;;;;5075124;28;20312;-74
2022/05/01 01:55:50;;;;;;;;;;;12.20;85.00;;;;;;5074747;28;19911;-74
2022/05/01 01:58:15;;;;;;;;;;;12.20;84.90;;;;;;5074593;28;19999;-74
2022/05/01 02:00:41;;;;;;;;;;;12.10;85.00;;;;;;5074824;28;19904;-74
2022/05/01 02:03:06;;;;;;;;;;;12.10;85.30;;;;;;5074862;28;19927;-74
2022/05/01 02:05:33;;;;;;;;;;;12.00;85.40;;;;;;5074695;28;19908;-74
2022/05/01 02:08:00;;;;;;;;;;;12.10;85.50;;;;;;5074370;28;19947;-74
2022/05/01 02:10:26;;;;;;;;;;;12.20;85.30;;;;;;5074480;28;19923;-74
2022/05/01 02:12:51;;;;;;;;;;;12.30;85.00;;;;;;5074281;28;19904;-74
2022/05/01 02:15:17;;;;;;;;;;;12.40;85.00;;;;;;5074380;28;20332;-74
2022/05/01 02:17:43;;;;;;;;;;;12.40;84.70;;;;;;5074584;28;19913;-74
2022/05/01 02:20:09;;;;;;;;;;;12.50;84.50;;;;;;5074239;28;19950;-74
2022/05/01 02:22:35;;;;;;;;;;;12.60;84.20;;;;;;5074298;28;19904;-74
2022/05/01 02:25:02;;;;;;;;;;;12.60;84.10;;;;;;5074234;28;19912;-74
2022/05/01 02:27:27;;;;;;;;;;;12.60;84.10;;;;;;5074053;28;19962;-74
2022/05/01 02:29:52;;;;;;;;;;;12.40;84.10;;;;;;5073444;28;19908;-74
2022/05/01 02:32:18;;;;;;;;;;;12.40;84.40;;;;;;5074114;28;19905;-74
2022/05/01 02:34:45;;;;;;;;;;;12.30;84.50;;;;;;5074021;28;19973;-74
2022/05/01 02:37:10;;;;;;;;;;;12.30;84.60;;;;;;5074139;28;20275;-74
2022/05/01 02:39:36;;;;;;;;;;;12.20;84.90;;;;;;5073960;28;19905;-74
2022/05/01 02:42:01;;;;;;;;;;;12.10;85.20;;;;;;5073702;28;19905;-74
2022/05/01 02:44:27;;;;;;;;;;;12.00;85.50;;;;;;5073627;28;20352;-74
2022/05/01 02:46:52;;;;;;;;;;;12.00;85.90;;;;;;5073810;28;19920;-74
2022/05/01 02:49:18;;;;;;;;;;;11.80;86.40;;;;;;5074104;28;19904;-74
2022/05/01 02:51:43;;;;;;;;;;;11.70;86.80;;;;;;5073764;28;20016;-74
2022/05/01 02:54:09;;;;;;;;;;;11.60;87.30;;;;;;5073772;28;19904;-74
2022/05/01 02:56:34;;;;;;;;;;;11.50;87.90;;;;;;5073436;28;19904;-74
2022/05/01 02:59:00;;;;;;;;;;;11.40;88.20;;;;;;5073599;28;19957;-74
2022/05/01 03:01:26;;;;;;;;;;;11.40;88.50;;;;;;5073715;28;19905;-73
2022/05/01 03:03:51;;;;;;;;;;;11.40;88.70;;;;;;5073637;28;19905;-74
2022/05/01 03:06:17;;;;;;;;;;;11.40;88.50;;;;;;5073315;28;19912;-74
2022/05/01 03:08:44;;;;;;;;;;;11.50;88.20;;;;;;5073672;28;19909;-74
2022/05/01 03:11:09;;;;;;;;;;;11.60;88.20;;;;;;5073371;28;19916;-74
2022/05/01 03:13:34;;;;;;;;;;;11.60;88.00;;;;;;5073596;28;19958;-74
2022/05/01 03:16:00;;;;;;;;;;;11.60;88.00;;;;;;5073802;28;20007;-74
2022/05/01 03:23:54;;;;;;;;;;;11.50;88.40;;;;;;5073627;28;19950;-74
2022/05/01 03:26:19;;;;;;;;;;;11.60;88.30;;;;;;5073656;28;19916;-74
2022/05/01 03:28:45;;;;;;;;;;;11.80;88.10;;;;;;5073378;28;19904;-74
2022/05/01 03:31:12;;;;;;;;;;;11.80;87.70;;;;;;5073811;28;19987;-74
2022/05/01 03:33:37;;;;;;;;;;;11.70;87.70;;;;;;5073682;28;19908;-74
2022/05/01 03:36:06;;;;;;;;;;;11.50;88.30;;;;;;5073291;28;19961;-74
2022/05/01 03:38:39;;;;;;;;;;;11.40;89.00;;;;;;5073643;28;19908;-74
2022/05/01 03:41:06;;;;;;;;;;;11.20;89.50;;;;;;5074948;28;20038;-74
2022/05/01 03:43:32;;;;;;;;;;;11.30;89.70;;;;;;5077653;28;19946;-74
2022/05/01 03:45:58;;;;;;;;;;;11.30;89.60;;;;;;5077130;28;19962;-74
2022/05/01 03:48:24;;;;;;;;;;;11.30;89.60;;;;;;5077549;28;19904;-74
2022/05/01 03:50:51;;;;;;;;;;;11.40;89.60;;;;;;5077153;28;19911;-74
2022/05/01 03:53:16;;;;;;;;;;;11.50;89.30;;;;;;5077379;28;19904;-74
2022/05/01 03:55:42;;;;;;;;;;;11.60;88.90;;;;;;5076837;28;19912;-74
2022/05/01 03:58:07;;;;;;;;;;;11.70;88.60;;;;;;5077297;28;19939;-74
2022/05/01 04:00:33;;;;;;;;;;;11.70;88.40;;;;;;5076957;28;20360;-74
2022/05/01 04:02:58;;;;;;;;;;;11.70;88.20;;;;;;5077001;28;19904;-74
2022/05/01 04:05:24;;;;;;;;;;;11.60;88.20;;;;;;5077237;28;19923;-75
2022/05/01 04:07:49;;;;;;;;;;;11.60;88.20;;;;;;5076880;28;19904;-74
2022/05/01 04:10:15;;;;;;;;;;;11.70;88.40;;;;;;5076726;28;19966;-74
2022/05/01 04:12:43;;;;;;;;;;;11.60;88.40;;;;;;5077001;28;19923;-74
2022/05/01 04:15:11;;;;;;;;;;;11.60;88.60;;;;;;5077010;28;20007;-75
2022/05/01 04:17:40;;;;;;;;;;;11.60;88.60;;;;;;5076572;28;19904;-74
2022/05/01 04:20:08;;;;;;;;;;;11.60;88.60;;;;;;5076647;28;19908;-74
2022/05/01 04:22:35;;;;;;;;;;;11.70;88.60;;;;;;5076743;28;19955;-74
2022/05/01 04:25:01;;;;;;;;;;;11.70;88.40;;;;;;5076462;28;19904;-74
2022/05/01 04:27:26;;;;;;;;;;;11.50;88.70;;;;;;5076531;28;19915;-74
2022/05/01 04:29:52;;;;;;;;;;;11.40;89.00;;;;;;5076137;28;20324;-74
2022/05/01 04:32:20;;;;;;;;;;;11.30;89.40;;;;;;5076349;28;19983;-74
2022/05/01 04:34:45;;;;;;;;;;;11.40;89.80;;;;;;5076642;28;19908;-74
2022/05/01 04:37:11;;;;;;;;;;;11.30;90.00;;;;;;5076519;28;19904;-74
2022/05/01 04:39:36;;;;;;;;;;;11.30;90.00;;;;;;5076302;28;20271;-74
2022/05/01 04:42:02;;;;;;;;;;;11.30;90.00;;;;;;5076303;28;19949;-74
2022/05/01 04:44:27;;;;;;;;;;;11.20;90.10;;;;;;5076489;28;20340;-74
2022/05/01 04:46:53;;;;;;;;;;;11.10;90.30;;;;;;5076244;28;20011;-74
2022/05/01 04:49:18;;;;;;;;;;;11.00;90.50;;;;;;5076343;28;20339;-74
2022/05/01 04:51:44;;;;;;;;;;;10.90;90.80;;;;;;5076210;28;19904;-74
2022/05/01 04:54:10;;;;;;;;;;;10.80;91.10;;;;;;5075487;28;19904;-74
2022/05/01 04:59:19;;;;;;;;;;;10.70;91.40;;;;;;5075955;28;19911;-74
2022/05/01 05:01:45;;;;;;;;;;;10.70;91.50;;;;;;5075855;28;19904;-74
2022/05/01 05:04:10;;;;;;;;;;;10.70;91.60;;;;;;5075830;28;19904;-74
2022/05/01 05:06:36;;;;;;;;;;;10.70;91.70;;;;;;5075862;28;20006;-74
2022/05/01 05:11:45;;;;;;;;;;;10.80;91.80;;;;;;5075520;28;19923;-74
2022/05/01 05:14:11;;;;;;;;;;;10.60;92.10;;;;;;5075816;28;19908;-74
2022/05/01 05:16:36;;;;;;;;;;;10.50;92.30;;;;;;5075940;28;19908;-74
2022/05/01 05:19:02;;;;;;;;;;;10.60;92.40;;;;;;5075502;28;19910;-74
2022/05/01 05:21:27;;;;;;;;;;;10.70;92.40;;;;;;5075739;28;19958;-74
2022/05/01 05:23:54;;;;;;;;;;;10.80;92.40;;;;;;5075301;28;19935;-74
2022/05/01 05:26:19;;;;;;;;;;;10.90;92.30;;;;;;5075067;28;19959;-74
2022/05/01 05:28:45;;;;;;;;;;;11.00;92.20;;;;;;5075025;28;19904;-74
2022/05/01 05:31:10;;;;;;;;;;;11.00;92.00;;;;;;5075518;28;19904;-74
2022/05/01 05:33:36;;;;;;;;;;;11.10;91.90;;;;;;5075531;28;19904;-74
2022/05/01 05:36:01;;;;;;;;;;;11.20;91.60;;;;;;5075365;28;19904;-74
2022/05/01 05:38:27;;;;;;;;;;;11.10;91.70;;;;;;5075052;28;19905;-74
2022/05/01 05:40:52;;;;;;;;;;;11.00;91.70;;;;;;5075168;28;20409;-74
2022/05/01 05:43:18;;;;;;;;;;;11.00;91.90;;;;;;5074809;28;19904;-74
2022/05/01 05:45:43;;;;;;;;;;;11.00;91.90;;;;;;5074743;28;19912;-74
2022/05/01 05:48:09;;;;;;;;;;;11.10;92.00;;;;;;5075125;28;19934;-74
2022/05/01 05:50:35;;;;;;;;;;;11.10;91.90;;;;;;5074821;28;20034;-74
2022/05/01 05:53:00;;;;;;;;;;;11.20;91.80;;;;;;5075013;28;19935;-74
2022/05/01 05:55:26;;;;;;;;;;;11.30;91.70;;;;;;5074923;28;20347;-74
2022/05/01 05:57:51;;;;;;;;;;;11.30;91.50;;;;;;5075144;28;19989;-74
2022/05/01 06:00:17;;;;;;;;;;;11.30;91.50;;;;;;5074942;28;20018;-74
2022/05/01 06:02:42;;;;;;;;;;;11.50;91.50;;;;;;5074869;28;19908;-74
2022/05/01 06:05:08;;;;;;;;;;;11.60;91.40;;;;;;5073434;28;19909;-74
2022/05/01 06:07:34;;;;;;;;;;;11.80;91.20;;;;;;5074583;28;19908;-74
2022/05/01 06:09:59;;;;;;;;;;;11.80;90.70;;;;;;5074218;28;19917;-74
2022/05/01 06:12:25;;;;;;;;;;;11.80;90.70;;;;;;5074758;28;19948;-74
2022/05/01 06:14:50;;;;;;;;;;;11.70;90.80;;;;;;5074455;28;19927;-74
2022/05/01 06:17:16;;;;;;;;;;;11.70;90.90;;;;;;5074275;28;19904;-74
2022/05/01 06:19:41;;;;;;;;;;;11.80;91.00;;;;;;5074591;28;19939;-74
2022/05/01 06:22:07;;;;;;;;;;;11.90;91.00;;;;;;5074040;28;19904;-74
2022/05/01 06:24:32;;;;;;;;;;;12.00;90.90;;;;;;5074310;28;19908;-74
2022/05/01 06:26:58;;;;;;;;;;;12.00;90.80;;;;;;5074306;28;20347;-74
2022/05/01 06:29:24;;;;;;;;;;;12.00;90.60;;;;;;5074198;28;20420;-74
2022/05/01 06:31:50;;;;;;;;;;;12.00;90.50;;;;;;5073841;28;19908;-74
2022/05/01 06:34:15;;;;;;;;;;;12.10;90.60;;;;;;5074064;28;19908;-74
2022/05/01 06:36:41;;;;;;;;;;;12.20;90.60;;;;;;5074147;28;19904;-74
2022/05/01 06:39:09;;;;;;;;;;;12.40;90.30;;;;;;5074332;28;20359;-74
2022/05/01 06:41:34;;;;;;;;;;;12.40;90.20;;;;;;5073620;28;20390;-74
2022/05/01 06:44:00;;;;;;;;;;;12.50;90.10;;;;;;5073951;28;19905;-74
2022/05/01 06:46:25;;;;;;;;;;;12.50;89.20;;;;;;5073790;28;19982;-75
2022/05/01 06:48:50;;;;;;;;;;;12.50;89.80;;;;;;5074241;28;19982;-74
2022/05/01 06:51:16;;;;;;;;;;;12.40;89.10;;;;;;5073966;28;19905;-74
2022/05/01 06:53:41;;;;;;;;;;;12.30;89.40;;;;;;5074127;28;20317;-74
2022/05/01 06:56:07;;;;;;;;;;;12.20;89.90;;;;;;5073762;28;19904;-74
2022/05/01 06:58:34;;;;;;;;;;;12.20;90.20;;;;;;5074040;28;19999;-74
2022/05/01 07:01:00;;;;;;;;;;;12.20;90.40;;;;;;5073715;28;20322;-74
2022/05/01 07:03:26;;;;;;;;;;;12.20;90.30;;;;;;5073765;28;19943;-74
2022/05/01 07:05:51;;;;;;;;;;;12.30;90.30;;;;;;5073842;28;20420;-74
2022/05/01 07:08:17;;;;;;;;;;;12.30;90.20;;;;;;5073669;28;19911;-74
2022/05/01 07:10:43;;;;;;;;;;;12.30;90.20;;;;;;5073464;28;20027;-74
2022/05/01 07:13:10;;;;;;;;;;;12.50;90.20;;;;;;5073658;28;19980;-74
2022/05/01 07:15:36;;;;;;;;;;;12.60;90.20;;;;;;5073562;28;19958;-74
2022/05/01 07:18:01;;;;;;;;;;;12.70;90.00;;;;;;5073675;28;19905;-74
2022/05/01 07:20:26;;;;;;;;;;;12.80;89.40;;;;;;5073537;28;20260;-74
2022/05/01 07:22:52;;;;;;;;;;;12.80;88.50;;;;;;5073504;28;19973;-74
2022/05/01 07:25:17;;;;;;;;;;;12.70;88.20;;;;;;5073628;28;19904;-74
2022/05/01 07:27:43;;;;;;;;;;;12.50;88.60;;;;;;5073375;28;20275;-74
2022/05/01 07:30:09;;;;;;;;;;;12.40;89.40;;;;;;5073381;28;20279;-74
2022/05/01 07:32:34;;;;;;;;;;;12.50;89.20;;;;;;5073360;28;19946;-74
2022/05/01 07:35:00;;;;;;;;;;;12.60;89.40;;;;;;5073530;28;20027;-74
2022/05/01 07:37:26;;;;;;;;;;;12.90;89.30;;;;;;5072989;28;19962;-74
2022/05/01 07:39:52;;;;;;;;;;;13.10;88.70;;;;;;5073273;28;19955;-74
2022/05/01 07:42:18;;;;;;;;;;;13.20;87.70;;;;;;5073292;28;19904;-74
2022/05/01 07:44:43;;;;;;;;;;;13.10;87.20;;;;;;5073387;28;19908;-74
2022/05/01 07:47:09;;;;;;;;;;;12.90;87.10;;;;;;5073250;28;19916;-75
2022/05/01 07:49:34;;;;;;;;;;;12.80;87.50;;;;;;5073435;28;20298;-75
2022/05/01 07:52:00;;;;;;;;;;;12.80;88.50;;;;;;5073111;28;19904;-74
2022/05/01 07:54:25;;;;;;;;;;;12.80;87.90;;;;;;5073444;28;19911;-74
2022/05/01 07:56:51;;;;;;;;;;;12.80;86.60;;;;;;5073425;28;20290;-74
2022/05/01 07:59:16;;;;;;;;;;;12.70;87.00;;;;;;5073283;28;19904;-74
2022/05/01 08:01:42;;;;;;;;;;;12.80;86.70;;;;;;5073066;28;19958;-74
2022/05/01 08:06:51;;;;;;;;;;;12.90;86.50;;;;;;5073015;28;19920;-75
2022/05/01 08:09:17;;;;;;;;;;;12.90;86.70;;;;;;5073309;28;19909;-74
2022/05/01 08:11:44;;;;;;;;;;;12.90;86.90;;;;;;5072745;28;19958;-74
2022/05/01 08:14:12;;;;;;;;;;;12.90;86.40;;;;;;5073087;28;19957;-74
2022/05/01 08:16:39;;;;;;;;;;;12.90;85.70;;;;;;5072967;28;20284;-75
2022/05/01 08:21:48;;;;;;;;;;;12.90;86.60;;;;;;5072796;28;20267;-74
2022/05/01 08:24:15;;;;;;;;;;;13.00;86.50;;;;;;5072626;28;19904;-74
2022/05/01 08:26:42;;;;;;;;;;;13.00;87.00;;;;;;5072853;28;19912;-74
2022/05/01 08:29:07;;;;;;;;;;;13.10;86.10;;;;;;5075585;28;19909;-74
2022/05/01 08:31:33;;;;;;;;;;;13.10;85.10;;;;;;5076772;28;20263;-75
2022/05/01 08:33:58;;;;;;;;;;;13.10;85.00;;;;;;5076271;28;19904;-75
2022/05/01 08:36:25;;;;;;;;;;;13.10;85.00;;;;;;5076251;28;19998;-74
2022/05/01 08:38:52;;;;;;;;;;;13.10;84.60;;;;;;5076397;28;19904;-74
2022/05/01 08:41:17;;;;;;;;;;;13.30;85.70;;;;;;5076068;28;20367;-75
2022/05/01 08:43:42;;;;;;;;;;;13.50;84.60;;;;;;5076394;28;19992;-74
2022/05/01 08:46:26;;;;;;;;;;;13.70;84.10;;;;;;5076344;28;20267;-75
2022/05/01 08:48:52;;;;;;;;;;;13.80;81.40;;;;;;5075895;28;19947;-74
2022/05/01 08:51:18;;;;;;;;;;;13.90;80.60;;;;;;5075990;28;19935;-75
2022/05/01 08:53:44;;;;;;;;;;;14.00;81.20;;;;;;5076063;28;20363;-75
2022/05/01 08:56:10;;;;;;;;;;;14.00;81.00;;;;;;5076017;28;19912;-75
2022/05/01 08:58:39;;;;;;;;;;;14.10;82.50;;;;;;5076247;28;19991;-75
2022/05/01 09:01:05;;;;;;;;;;;14.40;81.20;;;;;;5075586;28;19912;-75
2022/05/01 09:03:31;;;;;;;;;;;14.40;79.50;;;;;;5076157;28;19908;-75
2022/05/01 09:05:56;;;;;;;;;;;14.40;78.30;;;;;;5075679;28;20252;-75
2022/05/01 09:08:22;;;;;;;;;;;14.40;76.60;;;;;;5075786;28;19905;-75
2022/05/01 09:10:48;;;;;;;;;;;14.40;75.60;;;;;;5075398;28;19991;-75
2022/05/01 09:13:13;;;;;;;;;;;14.20;75.60;;;;;;5075744;28;20355;-75
2022/05/01 09:15:40;;;;;;;;;;;14.20;77.00;;;;;;5075785;28;19904;-75
2022/05/01 09:18:14;;;;;;;;;;;14.20;77.40;;;;;;5075930;28;19904;-75
2022/05/01 09:20:58;;;;;;;;;;;14.30;77.10;;;;;;5075543;28;20271;-75
2022/05/01 09:23:36;;;;;;;;;;;14.30;77.40;;;;;;5075815;28;20300;-75
2022/05/01 09:26:02;;;;;;;;;;;14.30;76.30;;;;;;5075275;28;19955;-75
2022/05/01 09:28:28;;;;;;;;;;;14.30;74.50;;;;;;5075435;28;19987;-75
2022/05/01 09:30:53;;;;;;;;;;;14.10;73.80;;;;;;5075601;28;19955;-75
2022/05/01 09:33:19;;;;;;;;;;;14.00;74.80;;;;;;5075291;28;19904;-75
2022/05/01 09:35:45;;;;;;;;;;;14.00;74.70;;;;;;5075194;28;20001;-75
2022/05/01 09:38:13;;;;;;;;;;;14.00;75.90;;;;;;5074998;28;19911;-75
2022/05/01 09:40:39;;;;;;;;;;;14.00;75.50;;;;;;5075246;28;19912;-75
2022/05/01 09:43:04;;;;;;;;;;;14.00;75.80;;;;;;5075247;28;19904;-75
2022/05/01 09:45:33;;;;;;;;;;;14.00;75.70;;;;;;5074827;28;20359;-75
2022/05/01 09:47:58;;;;;;;;;;;14.00;74.90;;;;;;5075015;28;19916;-75
2022/05/01 09:50:41;;;;;;;;;;;14.00;74.00;;;;;;5074953;28;20423;-75
2022/05/01 09:53:06;;;;;;;;;;;13.90;75.10;;;;;;5074691;28;19904;-75
2022/05/01 09:55:32;;;;;;;;;;;14.00;74.70;;;;;;5074652;28;19904;-75
2022/05/01 09:58:11;;;;;;;;;;;14.10;75.30;;;;;;5074614;28;19905;-74
2022/05/01 10:00:36;;;;;;;;;;;14.10;74.10;;;;;;5074902;28;19904;-75
2022/05/01 10:03:18;;;;;;;;;;;14.10;73.80;;;;;;5074899;28;19904;-75
2022/05/01 10:05:44;;;;;;;;;;;14.10;73.20;;;;;;5074510;28;19919;-74
2022/05/01 10:08:10;;;;;;;;;;;14.10;72.70;;;;;;5074673;28;19904;-74
2022/05/01 10:10:36;;;;;;;;;;;14.30;72.50;;;;;;5074490;28;19963;-74
2022/05/01 10:13:02;;;;;;;;;;;14.20;74.40;;;;;;5074439;28;20356;-74
2022/05/01 10:15:28;;;;;;;;;;;14.20;74.60;;;;;;5074407;28;19911;-74
2022/05/01 10:17:53;;;;;;;;;;;14.30;71.60;;;;;;5074650;28;19911;-74
2022/05/01 10:20:20;;;;;;;;;;;14.40;69.20;;;;;;5074041;28;19950;-74
2022/05/01 10:22:46;;;;;;;;;;;14.40;69.80;;;;;;5074190;28;19905;-74
2022/05/01 10:25:16;;;;;;;;;;;14.40;70.30;;;;;;5074204;28;19904;-74
2022/05/01 10:27:51;;;;;;;;;;;14.30;68.80;;;;;;5074078;28;19950;-74
2022/05/01 10:33:15;;;;;;;;;;;14.40;67.80;;;;;;5074555;28;19974;-75
2022/05/01 10:35:51;;;;;;;;;;;14.40;67.10;;;;;;5074057;28;20274;-75
2022/05/01 10:38:32;;;;;;;;;;;14.60;67.10;;;;;;5074124;28;19910;-75
2022/05/01 10:40:58;;;;;;;;;;;14.60;66.40;;;;;;5073864;28;19973;-74
2022/05/01 10:43:30;;;;;;;;;;;14.70;66.60;;;;;;5074179;28;19904;-74
2022/05/01 10:46:03;;;;;;;;;;;14.70;67.00;;;;;;5073749;28;20416;-75
2022/05/01 10:48:33;;;;;;;;;;;14.70;67.20;;;;;;5074210;28;19943;-75
2022/05/01 10:51:16;;;;;;;;;;;14.70;68.00;;;;;;5073800;28;19908;-75
2022/05/01 10:54:02;;;;;;;;;;;14.80;68.30;;;;;;5073682;28;20314;-75
2022/05/01 10:56:33;;;;;;;;;;;14.90;67.90;;;;;;5073527;28;19904;-75
2022/05/01 10:59:24;;;;;;;;;;;15.00;68.10;;;;;;5073755;28;19906;-75
2022/05/01 11:01:53;;;;;;;;;;;15.00;68.50;;;;;;5073631;28;19936;-75
2022/05/01 11:04:21;;;;;;;;;;;15.10;68.40;;;;;;5073941;28;20366;-75
2022/05/01 11:06:48;;;;;;;;;;;15.10;67.80;;;;;;5073759;28;20009;-75
2022/05/01 11:09:14;;;;;;;;;;;15.10;67.00;;;;;;5073899;28;19904;-75
2022/05/01 11:11:40;;;;;;;;;;;15.00;67.30;;;;;;5073466;28;19969;-75
2022/05/01 11:14:05;;;;;;;;;;;15.00;67.80;;;;;;5073271;28;19957;-75
2022/05/01 11:16:51;;;;;;;;;;;15.00;67.60;;;;;;5073456;28;19904;-74
2022/05/01 11:19:16;;;;;;;;;;;15.00;66.20;;;;;;5073470;28;19972;-73
2022/05/01 11:21:46;;;;;;;;;;;14.90;66.60;;;;;;5073501;28;19904;-74
2022/05/01 11:24:13;;;;;;;;;;;14.90;66.40;;;;;;5073512;28;19904;-74
2022/05/01 11:26:59;;;;;;;;;;;14.90;66.70;;;;;;5073367;28;20030;-73
2022/05/01 11:29:24;;;;;;;;;;;15.00;67.10;;;;;;5073275;28;20447;-74
2022/05/01 11:31:51;;;;;;;;;;;15.00;67.10;;;;;;5073671;28;19958;-74
2022/05/01 11:34:21;;;;;;;;;;;15.10;67.00;;;;;;5073269;28;19908;-74
2022/05/01 11:37:13;;;;;;;;;;;15.20;66.70;;;;;;5073519;28;20026;-74
2022/05/01 11:39:48;;;;;;;;;;;15.20;64.20;;;;;;5070257;28;19912;-74
2022/05/01 11:42:25;;;;;;;;;;;15.20;64.10;;;;;;5073508;28;19904;-74
2022/05/01 11:44:52;;;;;;;;;;;15.20;64.30;;;;;;5073369;28;20007;-73
2022/05/01 11:47:18;;;;;;;;;;;15.20;63.40;;;;;;5073080;28;19919;-74
2022/05/01 11:49:44;;;;;;;;;;;15.10;64.40;;;;;;5073170;28;19905;-74
2022/05/01 11:52:10;;;;;;;;;;;15.30;64.60;;;;;;5073021;28;19961;-73
2022/05/01 11:54:36;;;;;;;;;;;15.40;63.80;;;;;;5073117;28;19905;-74
2022/05/01 12:02:31;;;;;;;;;;;15.40;62.80;;;;;;5075068;28;20311;-74
2022/05/01 12:04:58;;;;;;;;;;;15.50;62.30;;;;;;5077177;28;20317;-74
2022/05/01 12:07:24;;;;;;;;;;;15.60;62.60;;;;;;5076335;28;19923;-74
2022/05/01 12:09:53;;;;;;;;;;;15.70;62.30;;;;;;5075085;28;20119;-75
2022/05/01 12:12:19;;;;;;;;;;;15.70;61.00;;;;;;5075400;28;19920;-76
2022/05/01 12:14:46;;;;;;;;;;;15.80;60.80;;;;;;5074846;28;19904;-76
2022/05/01 12:17:15;;;;;;;;;;;15.80;60.80;;;;;;5076798;28;19957;-76
2022/05/01 12:19:44;;;;;;;;;;;15.90;61.10;;;;;;5075730;28;20344;-76
2022/05/01 12:22:12;;;;;;;;;;;15.90;61.10;;;;;;5076642;28;19911;-76
2022/05/01 12:24:38;;;;;;;;;;;16.00;61.10;;;;;;5075452;28;19998;-75
2022/05/01 12:27:04;;;;;;;;;;;16.10;60.30;;;;;;5075273;28;19923;-75
2022/05/01 12:29:30;;;;;;;;;;;16.10;59.80;;;;;;5074291;28;19904;-77
2022/05/01 12:32:02;;;;;;;;;;;16.20;59.60;;;;;;5075733;28;20302;-75
2022/05/01 12:34:31;;;;;;;;;;;16.20;59.40;;;;;;5076254;28;19904;-76
2022/05/01 12:36:57;;;;;;;;;;;16.30;59.80;;;;;;5076372;28;20024;-77
2022/05/01 12:39:23;;;;;;;;;;;16.30;59.60;;;;;;5076153;28;20275;-76
2022/05/01 12:47:42;;;;;;;6.70;5.28;;;16.50;59.20;;;;;;5087778;27;20581;-76
2022/05/01 12:50:18;;;;;;;9.02;5.45;;;16.40;59.30;;;;;;5089974;28;20024;-73
2022/05/01 12:52:53;;;;;;;8.70;5.50;;;16.40;59.10;;;;;;5090899;28;20031;-75
2022/05/01 12:55:18;;;;;;;8.32;5.13;;;16.40;59.20;;;;;;5084253;28;20384;-75
2022/05/01 12:57:52;;;;;;;8.00;5.20;;;16.40;58.80;;;;;;5069826;28;20021;-74
2022/05/01 13:00:43;;;;;;;6.25;4.35;;;16.40;58.50;;;;;;5069384;28;20039;-73
2022/05/01 13:03:26;;;;;;;6.78;4.50;;;16.40;59.20;;;;;;5069183;28;20392;-76
2022/05/01 13:06:02;;;;;;;;;;;16.40;59.10;;;;;;5070752;28;20033;-76
2022/05/01 13:08:31;;;;;;;6.20;5.13;;;16.40;58.60;;;;;;5070154;28;19997;-74
2022/05/01 13:11:15;;;;;;;6.38;5.10;;;16.40;58.50;;;;;;5069844;28;20032;-74
2022/05/01 13:13:51;;;;;;;7.18;5.05;;;16.40;57.60;;;;;;5069716;28;20372;-74
2022/05/01 13:16:39;;;;;;;6.47;4.78;;;16.40;57.30;;;;;;5069930;28;20063;-74
2022/05/01 13:19:14;;;;;;;7.05;5.20;;;16.40;57.10;;;;;;5069885;28;20024;-75
2022/05/01 13:21:49;;;;;;;5.57;4.75;;;16.30;56.70;;;;;;5069611;28;20614;-74
2022/05/01 13:24:15;;;;;;;7.45;4.82;;;16.20;56.80;;;;;;5069846;28;20372;-74
2022/05/01 13:26:42;;;;;;;6.25;3.75;;;16.20;57.10;;;;;;5069870;28;20029;-74
2022/05/01 13:29:09;;;;;;;6.63;5.25;;;16.20;57.50;;;;;;5069191;28;20535;-74
2022/05/01 13:31:42;;;;;;;8.80;5.15;;;16.30;57.40;;;;;;5069866;28;20087;-75
2022/05/01 13:34:09;;;;;;;5.18;4.70;;;16.30;57.00;;;;;;5069547;28;20024;-75
2022/05/01 13:36:35;;;;;;;6.50;4.93;;;16.20;56.70;;;;;;5069557;28;20027;-75
2022/05/01 13:39:03;;;;;;;7.85;5.00;;;16.30;57.00;;;;;;5069505;28;20025;-75
2022/05/01 13:46:59;;;;;;;7.40;4.95;;;16.30;57.90;;;;;;5068922;28;20052;-74
2022/05/01 13:49:25;;;;;;;5.07;4.43;;;16.30;58.10;;;;;;5069421;28;20016;-74
2022/05/01 13:51:52;;;;;;;7.00;4.82;;;16.30;58.10;;;;;;5069380;28;20021;-74
2022/05/01 13:54:17;;;;;;;12.20;4.88;;;16.30;57.70;;;;;;5068379;28;20138;-74
2022/05/01 13:56:44;;;;;;;8.15;5.25;;;16.40;57.30;;;;;;5067744;28;20029;-74
2022/05/01 13:59:11;;;;;;;8.43;4.95;;;16.40;56.70;;;;;;5053919;28;20033;-74
2022/05/01 14:01:36;;;;;;;5.75;4.68;;;16.40;56.80;;;;;;5054426;28;20105;-74
2022/05/01 14:04:03;;;;;;;8.20;4.18;;;16.40;56.90;;;;;;5055802;28;20460;-74
2022/05/01 14:06:30;;;;;;;6.18;4.57;;;16.50;56.80;;;;;;5055666;28;20119;-74
2022/05/01 14:08:56;;;;;;;6.20;4.70;;;16.50;56.60;;;;;;5056046;28;20021;-74
2022/05/01 14:11:22;;;;;;;5.95;4.80;;;16.50;56.50;;;;;;5055396;28;20113;-74
2022/05/01 14:13:48;;;;;;;7.25;4.65;;;16.50;56.60;;;;;;5055552;28;20017;-74
2022/05/01 14:16:14;;;;;;;6.32;4.53;;;16.40;56.40;;;;;;5055585;28;20022;-74
2022/05/01 14:18:42;;;;;;;6.93;4.55;;;16.40;56.70;;;;;;5055677;28;20048;-74
2022/05/01 14:21:08;;;;;;;6.75;4.47;;;16.40;57.10;;;;;;5055414;28;20452;-74
2022/05/01 14:23:40;;;;;;;5.55;4.53;;;16.30;57.00;;;;;;5055586;28;20029;-74
2022/05/01 14:26:06;;;;;;;6.72;4.50;;;16.30;57.10;;;;;;5055504;28;20035;-74
2022/05/01 14:28:32;;;;;;;7.25;4.35;;;16.20;57.30;;;;;;5055291;28;20041;-74
2022/05/01 14:31:04;;;;;;;6.38;4.10;;;16.10;57.70;;;;;;5055259;28;20032;-74
2022/05/01 14:33:55;;;;;;;6.20;4.25;;;16.10;58.10;;;;;;5055006;28;20488;-75
2022/05/01 14:36:28;;;;;;;11.32;4.18;;;16.10;58.30;;;;;;5055001;28;20385;-74
2022/05/01 14:39:04;;;;;;;;;;;16.10;58.50;;;;;;5055670;28;20025;-74
2022/05/01 14:41:50;;;;;;;5.15;4.15;;;16.10;59.10;;;;;;5055110;28;20355;-74
2022/05/01 14:44:30;;;;;;;5.07;3.40;;;16.10;59.40;;;;;;5055127;28;20029;-74
2022/05/01 14:46:58;;;;;;;7.93;3.90;;;16.20;59.20;;;;;;5054394;28;20053;-74